createdAt,value
2019-05-26T00:00:34.856Z,10.58
2019-05-26T00:03:06.375Z,9.70
2019-05-26T00:05:36.506Z,10.38
2019-05-26T00:08:06.663Z,10.93
2019-05-26T00:10:36.779Z,12.23
2019-05-26T00:13:06.944Z,12.23
2019-05-26T00:15:37.101Z,11.65
2019-05-26T00:18:07.219Z,11.73
2019-05-26T00:20:37.415Z,11.55
2019-05-26T00:23:07.516Z,11.55
2019-05-26T00:25:37.906Z,10.70
2019-05-26T00:28:08.009Z,10.90
2019-05-26T00:30:38.258Z,11.22
2019-05-26T00:33:08.403Z,11.35
2019-05-26T00:35:38.506Z,11.00
2019-05-26T00:38:08.603Z,10.78
2019-05-26T00:40:41.013Z,10.58
2019-05-26T00:43:11.209Z,11.15
2019-05-26T00:45:41.328Z,13.00
2019-05-26T00:48:14.079Z,10.63
2019-05-26T00:50:44.162Z,10.88
2019-05-26T00:53:14.302Z,12.65
2019-05-26T00:55:44.482Z,11.18
2019-05-26T00:58:14.607Z,10.70
2019-05-26T01:00:46.909Z,11.22
2019-05-26T01:03:17.358Z,12.37
2019-05-26T01:05:47.864Z,12.13
2019-05-26T01:08:18.856Z,12.47
2019-05-26T01:10:51.778Z,11.68
2019-05-26T01:13:23.493Z,13.03
2019-05-26T01:15:57.352Z,13.48
2019-05-26T01:18:29.453Z,12.75
2019-05-26T01:20:59.787Z,13.78
2019-05-26T01:23:31.723Z,12.50
2019-05-26T01:26:01.796Z,11.85
2019-05-26T01:28:31.878Z,11.48
2019-05-26T01:33:41.074Z,11.53
2019-05-26T01:36:11.672Z,11.78
2019-05-26T01:38:42.706Z,12.50
2019-05-26T01:41:13.733Z,13.65
2019-05-26T01:43:44.849Z,13.55
2019-05-26T01:46:16.915Z,14.98
2019-05-26T01:48:47.377Z,12.82
2019-05-26T01:51:17.543Z,15.05
2019-05-26T01:53:47.638Z,15.32
2019-05-26T01:56:17.695Z,15.00
2019-05-26T01:58:48.315Z,12.82
2019-05-26T02:01:19.875Z,14.75
2019-05-26T02:03:50.475Z,14.70
2019-05-26T02:06:20.868Z,14.45
2019-05-26T02:08:53.970Z,14.40
2019-05-26T02:11:25.671Z,13.93
2019-05-26T02:13:55.781Z,13.45
2019-05-26T02:16:28.640Z,13.88
2019-05-26T02:18:58.778Z,12.05
2019-05-26T02:21:29.063Z,11.30
2019-05-26T02:23:59.428Z,11.73
2019-05-26T02:26:29.544Z,12.10
2019-05-26T02:29:00.245Z,12.28
2019-05-26T02:31:34.008Z,14.38
2019-05-26T02:34:04.574Z,12.58
2019-05-26T02:36:34.727Z,14.07
2019-05-26T02:39:07.654Z,14.78
2019-05-26T02:41:37.814Z,14.20
2019-05-26T02:44:07.921Z,15.08
2019-05-26T02:46:40.765Z,15.00
2019-05-26T02:49:11.021Z,13.65
2019-05-26T02:51:41.169Z,15.65
2019-05-26T02:54:12.364Z,16.42
2019-05-26T02:56:42.877Z,14.03
2019-05-26T02:59:13.195Z,14.78
2019-05-26T03:02:02.383Z,14.93
2019-05-26T03:04:18.689Z,14.30
2019-05-26T03:06:49.893Z,13.95
2019-05-26T03:09:23.680Z,14.78
2019-05-26T03:11:54.892Z,14.73
2019-05-26T03:14:26.220Z,14.18
2019-05-26T03:16:58.547Z,15.93
2019-05-26T03:19:32.451Z,14.53
2019-05-26T03:22:07.334Z,13.95
2019-05-26T03:24:42.033Z,13.45
2019-05-26T03:27:14.610Z,13.90
2019-05-26T03:29:45.585Z,13.10
2019-05-26T03:32:17.423Z,13.95
2019-05-26T03:34:47.493Z,12.58
2019-05-26T03:37:17.877Z,13.78
2019-05-26T03:39:47.956Z,13.08
2019-05-26T03:42:18.158Z,15.03
2019-05-26T03:44:48.219Z,15.60
2019-05-26T03:47:20.985Z,12.53
2019-05-26T03:49:51.543Z,12.85
2019-05-26T03:52:21.943Z,12.80
2019-05-26T03:54:57.049Z,12.40
2019-05-26T03:57:33.253Z,11.70
2019-05-26T04:00:04.197Z,12.47
2019-05-26T04:02:40.768Z,12.65
2019-05-26T04:05:14.045Z,12.20
2019-05-26T04:07:45.929Z,10.93
2019-05-26T04:10:19.075Z,13.60
2019-05-26T04:12:49.527Z,13.68
2019-05-26T04:15:20.395Z,11.55
2019-05-26T04:17:50.514Z,10.82
2019-05-26T04:20:24.027Z,11.75
2019-05-26T04:22:57.090Z,10.95
2019-05-26T04:25:33.207Z,10.65
2019-05-26T04:28:04.250Z,11.93
2019-05-26T04:30:34.352Z,11.50
2019-05-26T04:33:05.968Z,12.23
2019-05-26T04:35:38.322Z,12.73
2019-05-26T04:38:09.435Z,12.98
2019-05-26T04:40:39.616Z,14.50
2019-05-26T04:43:14.845Z,12.80
2019-05-26T04:45:46.936Z,15.70
2019-05-26T04:48:17.811Z,15.10
2019-05-26T04:50:50.717Z,17.35
2019-05-26T04:53:25.602Z,15.35
2019-05-26T04:55:58.321Z,17.15
2019-05-26T04:58:38.797Z,16.48
2019-05-26T05:01:09.857Z,14.83
2019-05-26T05:03:39.966Z,15.05
2019-05-26T05:06:11.643Z,13.28
2019-05-26T05:08:42.944Z,13.40
2019-05-26T05:11:16.640Z,16.40
2019-05-26T05:13:48.622Z,14.30
2019-05-26T05:16:20.060Z,14.38
2019-05-26T05:18:52.228Z,15.23
2019-05-26T05:23:59.736Z,14.07
2019-05-26T05:26:30.785Z,13.88
2019-05-26T05:29:02.095Z,14.43
2019-05-26T05:31:32.663Z,14.93
2019-05-26T05:34:06.401Z,16.27
2019-05-26T05:36:37.880Z,13.88
2019-05-26T05:39:09.060Z,10.35
2019-05-26T05:41:41.660Z,11.05
2019-05-26T05:44:11.771Z,11.05
2019-05-26T05:46:45.300Z,9.13
2019-05-26T05:49:17.129Z,9.75
2019-05-26T05:51:47.335Z,9.93
2019-05-26T05:54:20.236Z,9.75
2019-05-26T05:56:55.770Z,11.03
2019-05-26T05:59:26.501Z,8.93
2019-05-26T06:01:56.632Z,9.93
2019-05-26T06:04:29.165Z,8.50
2019-05-26T06:06:59.724Z,7.95
2019-05-26T06:09:33.498Z,7.33
2019-05-26T06:12:03.642Z,8.70
2019-05-26T06:14:36.924Z,8.65
2019-05-26T06:17:13.150Z,8.70
2019-05-26T06:19:43.687Z,7.35
2019-05-26T06:22:17.317Z,7.67
2019-05-26T06:24:48.456Z,7.00
2019-05-26T06:27:18.908Z,7.30
2019-05-26T06:29:58.760Z,7.00
2019-05-26T06:32:25.471Z,7.05
2019-05-26T06:34:55.562Z,7.00
2019-05-26T06:37:28.261Z,7.50
2019-05-26T06:40:00.016Z,6.62
2019-05-26T06:42:31.590Z,6.95
2019-05-26T06:45:05.059Z,7.55
2019-05-26T06:47:35.377Z,6.12
2019-05-26T06:50:06.153Z,6.47
2019-05-26T06:52:36.704Z,6.20
2019-05-26T06:55:07.180Z,6.60
2019-05-26T06:57:37.453Z,7.42
2019-05-26T07:00:09.038Z,6.35
2019-05-26T07:02:39.123Z,6.92
2019-05-26T07:05:12.924Z,5.78
2019-05-26T07:07:46.101Z,6.40
2019-05-26T07:10:18.124Z,6.15
2019-05-26T07:12:48.523Z,6.50
2019-05-26T07:15:20.817Z,7.17
2019-05-26T07:17:51.973Z,8.53
2019-05-26T07:20:22.454Z,7.92
2019-05-26T07:22:54.747Z,9.55
2019-05-26T07:25:28.255Z,8.65
2019-05-26T07:27:59.130Z,9.65
2019-05-26T07:30:31.800Z,9.48
2019-05-26T07:33:07.385Z,9.18
2019-05-26T07:35:40.270Z,9.08
2019-05-26T07:38:12.167Z,7.80
2019-05-26T07:40:47.878Z,10.13
2019-05-26T07:43:37.215Z,9.30
2019-05-26T07:46:07.301Z,9.43
2019-05-26T07:48:37.444Z,8.45
2019-05-26T07:51:15.184Z,8.78
2019-05-26T07:53:46.802Z,7.95
2019-05-26T07:56:17.761Z,9.88
2019-05-26T08:00:01.948Z,9.48
2019-05-26T08:02:37.726Z,9.20
2019-05-26T08:05:08.163Z,9.00
2019-05-26T08:07:40.670Z,9.23
2019-05-26T08:10:15.456Z,9.83
2019-05-26T08:12:46.081Z,7.40
2019-05-26T08:15:17.415Z,7.28
2019-05-26T08:17:51.956Z,8.95
2019-05-26T08:20:27.879Z,8.63
2019-05-26T08:23:00.866Z,9.30
2019-05-26T08:25:36.259Z,7.60
2019-05-26T08:28:06.404Z,9.45
2019-05-26T08:30:36.484Z,8.80
2019-05-26T08:33:07.545Z,8.15
2019-05-26T08:35:37.621Z,7.80
2019-05-26T08:38:08.495Z,8.70
2019-05-26T08:40:40.190Z,8.10
2019-05-26T08:43:14.909Z,8.90
2019-05-26T08:45:44.968Z,7.67
2019-05-26T08:48:18.821Z,8.58
2019-05-26T08:50:51.354Z,7.87
2019-05-26T08:53:23.173Z,7.35
2019-05-26T08:55:56.666Z,6.75
2019-05-26T08:58:29.455Z,8.33
2019-05-26T09:01:02.698Z,7.50
2019-05-26T09:03:57.426Z,8.00
2019-05-26T09:06:28.186Z,7.12
2019-05-26T09:08:59.166Z,7.27
2019-05-26T09:11:32.265Z,8.90
2019-05-26T09:14:02.617Z,7.28
2019-05-26T09:16:34.078Z,7.33
2019-05-26T09:19:05.727Z,6.83
2019-05-26T09:21:38.000Z,8.60
2019-05-26T09:24:09.791Z,7.80
2019-05-26T09:26:39.979Z,6.67
2019-05-26T09:29:10.433Z,7.53
2019-05-26T09:31:42.646Z,7.50
2019-05-26T09:34:16.977Z,7.30
2019-05-26T09:36:49.276Z,8.13
2019-05-26T09:39:21.338Z,6.67
2019-05-26T09:41:54.639Z,6.57
2019-05-26T09:44:24.823Z,6.93
2019-05-26T09:46:57.907Z,6.60
2019-05-26T09:49:41.380Z,6.80
2019-05-26T09:52:15.784Z,6.27
2019-05-26T09:54:45.893Z,7.28
2019-05-26T09:57:17.972Z,6.73
2019-05-26T09:59:51.176Z,6.90
2019-05-26T10:02:23.432Z,6.20
2019-05-26T10:04:55.635Z,5.10
2019-05-26T10:07:27.811Z,5.87
2019-05-26T10:10:02.502Z,5.57
2019-05-26T10:12:34.535Z,4.97
2019-05-26T10:15:05.680Z,5.27
2019-05-26T10:17:52.997Z,5.77
2019-05-26T10:20:23.546Z,5.40
2019-05-26T10:22:53.834Z,4.57
2019-05-26T10:25:27.520Z,4.90
2019-05-26T10:28:00.310Z,4.40
2019-05-26T10:30:32.120Z,5.00
2019-05-26T10:33:03.300Z,4.50
2019-05-26T10:35:35.709Z,4.63
2019-05-26T10:38:10.011Z,4.37
2019-05-26T10:40:42.995Z,3.70
2019-05-26T10:43:15.827Z,4.10
2019-05-26T10:45:54.674Z,4.25
2019-05-26T10:48:27.539Z,4.70
2019-05-26T10:51:06.970Z,4.70
2019-05-26T10:54:23.757Z,5.83
2019-05-26T10:57:22.409Z,4.20
2019-05-26T11:00:18.016Z,5.03
2019-05-26T11:02:48.945Z,4.10
2019-05-26T11:05:34.121Z,3.43
2019-05-26T11:08:07.307Z,3.60
2019-05-26T11:10:41.489Z,4.20
2019-05-26T11:13:14.169Z,4.10
2019-05-26T11:15:51.048Z,3.23
2019-05-26T11:18:26.247Z,3.40
2019-05-26T11:21:00.821Z,3.33
2019-05-26T11:23:36.933Z,4.03
2019-05-26T11:26:13.576Z,3.50
2019-05-26T11:28:54.007Z,4.17
2019-05-26T11:31:26.420Z,3.17
2019-05-26T11:33:59.045Z,2.87
2019-05-26T11:36:35.333Z,3.07
2019-05-26T11:42:12.981Z,3.10
2019-05-26T11:44:41.649Z,3.00
2019-05-26T11:47:20.591Z,3.10
2019-05-26T11:49:57.590Z,2.70
2019-05-26T11:52:38.112Z,2.90
2019-05-26T11:55:11.568Z,1.70
2019-05-26T11:57:47.937Z,1.93
2019-05-26T12:00:23.024Z,2.53
2019-05-26T12:02:54.575Z,2.73
2019-05-26T12:05:27.204Z,3.20
2019-05-26T12:07:58.666Z,3.00
2019-05-26T12:10:30.459Z,2.70
2019-05-26T12:13:11.263Z,2.30
2019-05-26T12:15:46.480Z,3.00
2019-05-26T12:18:17.692Z,2.70
2019-05-26T12:21:08.058Z,3.43
2019-05-26T12:23:39.462Z,2.90
2019-05-26T12:26:12.517Z,2.73
2019-05-26T12:28:50.969Z,2.40
2019-05-26T12:31:26.172Z,2.43
2019-05-26T12:34:09.229Z,3.13
2019-05-26T12:36:40.866Z,2.50
2019-05-26T12:39:16.875Z,3.00
2019-05-26T12:41:50.198Z,3.20
2019-05-26T12:44:29.172Z,3.07
2019-05-26T12:47:13.663Z,3.07
2019-05-26T12:50:04.271Z,2.30
2019-05-26T12:52:39.763Z,3.57
2019-05-26T12:55:19.429Z,3.10
2019-05-26T12:57:52.772Z,3.47
2019-05-26T13:00:23.676Z,3.10
2019-05-26T13:02:56.970Z,3.87
2019-05-26T13:05:29.662Z,3.47
2019-05-26T13:08:19.732Z,3.27
2019-05-26T13:10:53.342Z,4.00
2019-05-26T13:13:29.621Z,3.20
2019-05-26T13:16:17.365Z,2.70
2019-05-26T13:18:43.393Z,2.83
2019-05-26T13:21:16.232Z,3.17
2019-05-26T13:23:49.171Z,3.00
2019-05-26T13:26:29.250Z,2.77
2019-05-26T13:29:04.368Z,2.93
2019-05-26T13:31:35.524Z,3.50
2019-05-26T13:34:10.731Z,2.60
2019-05-26T13:36:44.216Z,3.20
2019-05-26T13:39:18.457Z,2.83
2019-05-26T13:42:01.883Z,2.60
2019-05-26T13:44:37.343Z,2.10
2019-05-26T13:47:25.651Z,2.50
2019-05-26T13:49:58.963Z,2.07
2019-05-26T13:52:29.725Z,1.77
2019-05-26T13:55:04.499Z,1.47
2019-05-26T13:57:36.931Z,1.73
2019-05-26T14:00:16.417Z,1.90
2019-05-26T14:02:54.527Z,1.70
2019-05-26T14:05:27.854Z,1.80
2019-05-26T14:07:59.968Z,1.52
2019-05-26T14:10:40.272Z,2.10
2019-05-26T14:13:11.570Z,1.47
2019-05-26T14:15:45.694Z,1.90
2019-05-26T14:18:18.181Z,1.47
2019-05-26T14:20:51.756Z,1.73
2019-05-26T14:23:28.707Z,2.27
2019-05-26T14:26:13.449Z,2.47
2019-05-26T14:28:50.331Z,1.60
2019-05-26T14:31:32.616Z,1.70
2019-05-26T14:34:05.216Z,1.60
2019-05-26T14:36:48.883Z,1.70
2019-05-26T14:39:22.802Z,1.63
2019-05-26T14:41:59.946Z,1.70
2019-05-26T14:44:34.276Z,1.37
2019-05-26T14:47:11.327Z,1.33
2019-05-26T14:49:48.482Z,1.40
2019-05-26T14:52:24.366Z,1.60
2019-05-26T14:55:02.038Z,1.30
2019-05-26T14:57:35.163Z,1.40
2019-05-26T15:00:15.830Z,1.47
2019-05-26T15:02:49.064Z,2.20
2019-05-26T15:05:20.012Z,1.53
2019-05-26T15:08:01.762Z,1.80
2019-05-26T15:10:32.109Z,1.70
2019-05-26T15:13:03.783Z,1.67
2019-05-26T15:15:35.383Z,1.37
2019-05-26T15:18:05.927Z,1.80
2019-05-26T15:20:37.116Z,1.80
2019-05-26T15:23:13.543Z,2.70
2019-05-26T15:25:44.383Z,1.33
2019-05-26T15:28:18.543Z,1.40
2019-05-26T15:33:29.882Z,1.60
2019-05-26T15:36:00.111Z,1.30
2019-05-26T15:38:42.395Z,1.50
2019-05-26T15:41:04.508Z,1.90
2019-05-26T15:43:35.380Z,1.60
2019-05-26T15:46:06.309Z,2.00
2019-05-26T15:48:36.635Z,1.40
2019-05-26T15:51:08.313Z,1.53
2019-05-26T15:53:39.656Z,1.57
2019-05-26T15:56:12.408Z,1.70
2019-05-26T15:58:43.602Z,1.67
2019-05-26T16:01:16.269Z,2.20
2019-05-26T16:03:48.735Z,1.30
2019-05-26T16:06:20.791Z,1.43
2019-05-26T16:08:52.282Z,1.50
2019-05-26T16:11:23.179Z,1.40
2019-05-26T16:14:00.020Z,1.40
2019-05-26T16:16:40.822Z,1.67
2019-05-26T16:19:06.175Z,1.70
2019-05-26T16:21:38.128Z,1.93
2019-05-26T16:24:08.499Z,2.57
2019-05-26T16:26:39.459Z,1.80
2019-05-26T16:29:12.660Z,1.90
2019-05-26T16:31:43.010Z,1.93
2019-05-26T16:34:14.969Z,2.23
2019-05-26T16:36:50.959Z,1.90
2019-05-26T16:39:35.855Z,1.50
2019-05-26T16:41:53.548Z,1.60
2019-05-26T16:44:23.843Z,1.43
2019-05-26T16:46:56.833Z,1.20
2019-05-26T16:49:29.765Z,1.27
2019-05-26T16:52:00.187Z,1.07
2019-05-26T16:54:30.880Z,1.50
2019-05-26T16:57:01.327Z,1.23
2019-05-26T16:59:32.202Z,1.40
2019-05-26T17:02:04.144Z,1.30
2019-05-26T17:04:36.171Z,1.13
2019-05-26T17:07:08.677Z,1.17
2019-05-26T17:09:44.215Z,1.70
2019-05-26T17:12:14.904Z,1.60
2019-05-26T17:14:46.557Z,1.23
2019-05-26T17:17:21.728Z,1.30
2019-05-26T17:19:56.008Z,1.30
2019-05-26T17:22:29.731Z,1.40
2019-05-26T17:25:20.706Z,1.73
2019-05-26T17:27:52.323Z,1.50
2019-05-26T17:30:23.889Z,1.50
2019-05-26T17:32:55.029Z,1.43
2019-05-26T17:35:26.607Z,1.90
2019-05-26T17:38:00.623Z,1.40
2019-05-26T17:40:31.106Z,1.30
2019-05-26T17:43:04.630Z,1.90
2019-05-26T17:45:35.143Z,1.83
2019-05-26T17:48:05.922Z,2.93
2019-05-26T17:50:37.749Z,1.70
2019-05-26T17:53:10.289Z,2.10
2019-05-26T17:55:45.010Z,2.33
2019-05-26T17:58:15.581Z,2.00
2019-05-26T18:00:47.356Z,1.83
2019-05-26T18:03:20.168Z,1.77
2019-05-26T18:05:52.014Z,1.90
2019-05-26T18:08:24.430Z,2.33
2019-05-26T18:10:54.589Z,1.70
2019-05-26T18:13:27.014Z,2.77
2019-05-26T18:15:58.187Z,2.00
2019-05-26T18:18:28.984Z,2.10
2019-05-26T18:20:59.245Z,2.50
2019-05-26T18:23:29.479Z,2.27
2019-05-26T18:26:04.689Z,2.40
2019-05-26T18:28:35.124Z,2.40
2019-05-26T18:31:11.648Z,2.33
2019-05-26T18:33:45.704Z,1.80
2019-05-26T18:36:17.240Z,2.53
2019-05-26T18:38:48.341Z,2.20
2019-05-26T18:41:18.460Z,1.93
2019-05-26T18:46:44.045Z,2.50
2019-05-26T18:49:15.876Z,2.50
2019-05-26T18:51:47.769Z,2.07
2019-05-26T18:54:21.844Z,2.80
2019-05-26T18:56:52.412Z,2.47
2019-05-26T18:59:24.566Z,2.20
2019-05-26T19:01:56.676Z,2.37
2019-05-26T19:04:31.626Z,2.37
2019-05-26T19:07:06.196Z,2.50
2019-05-26T19:09:37.938Z,2.20
2019-05-26T19:12:10.512Z,3.07
2019-05-26T19:14:41.198Z,2.40
2019-05-26T19:17:13.537Z,2.63
2019-05-26T19:19:46.956Z,2.70
2019-05-26T19:22:19.321Z,2.83
2019-05-26T19:24:54.413Z,2.98
2019-05-26T19:27:28.676Z,2.50
2019-05-26T19:29:59.285Z,2.67
2019-05-26T19:32:31.857Z,4.78
2019-05-26T19:35:04.716Z,3.25
2019-05-26T19:37:35.934Z,2.70
2019-05-26T19:40:09.930Z,3.15
2019-05-26T19:42:40.990Z,2.50
2019-05-26T19:45:18.996Z,2.55
2019-05-26T19:47:50.009Z,2.87
2019-05-26T19:50:20.599Z,3.00
2019-05-26T19:52:51.252Z,2.70
2019-05-26T19:55:27.673Z,2.90
2019-05-26T19:58:00.925Z,4.12
2019-05-26T20:00:33.691Z,3.22
2019-05-26T20:03:08.116Z,2.67
2019-05-26T20:05:40.971Z,2.98
2019-05-26T20:08:13.605Z,3.62
2019-05-26T20:10:47.254Z,3.02
2019-05-26T20:13:20.582Z,3.62
2019-05-26T20:15:53.355Z,3.60
2019-05-26T20:18:33.726Z,3.08
2019-05-26T20:21:29.560Z,3.87
2019-05-26T20:24:00.896Z,3.30
2019-05-26T20:26:31.692Z,3.80
2019-05-26T20:29:04.904Z,3.37
2019-05-26T20:31:36.930Z,3.20
2019-05-26T20:34:47.826Z,4.10
2019-05-26T20:37:21.599Z,3.50
2019-05-26T20:39:57.530Z,3.85
2019-05-26T20:42:34.043Z,3.15
2019-05-26T20:45:08.580Z,3.52
2019-05-26T20:47:43.269Z,3.45
2019-05-26T20:50:28.753Z,3.47
2019-05-26T20:52:50.644Z,3.22
2019-05-26T20:55:20.955Z,4.00
2019-05-26T20:57:51.726Z,3.85
2019-05-26T21:00:26.093Z,3.98
2019-05-26T21:02:56.583Z,4.20
2019-05-26T21:05:29.779Z,4.28
2019-05-26T21:08:01.820Z,3.65
2019-05-26T21:10:37.238Z,3.77
2019-05-26T21:13:11.340Z,4.20
2019-05-26T21:15:45.768Z,5.05
2019-05-26T21:18:15.979Z,4.58
2019-05-26T21:20:47.760Z,6.10
2019-05-26T21:23:22.798Z,3.92
2019-05-26T21:25:55.676Z,3.83
2019-05-26T21:28:36.775Z,4.65
2019-05-26T21:31:11.485Z,3.85
2019-05-26T21:33:44.181Z,4.15
2019-05-26T21:36:15.472Z,4.78
2019-05-26T21:38:46.532Z,4.75
2019-05-26T21:41:20.461Z,4.58
2019-05-26T21:43:51.995Z,4.72
2019-05-26T21:46:23.240Z,4.33
2019-05-26T21:48:57.643Z,4.20
2019-05-26T21:51:27.922Z,4.58
2019-05-26T21:53:58.902Z,4.97
2019-05-26T21:56:29.449Z,4.35
2019-05-26T21:58:59.659Z,4.33
2019-05-26T22:01:31.261Z,5.20
2019-05-26T22:04:04.652Z,5.25
2019-05-26T22:06:34.736Z,5.42
2019-05-26T22:09:06.902Z,5.67
2019-05-26T22:11:43.620Z,4.50
2019-05-26T22:14:15.018Z,5.67
2019-05-26T22:16:47.889Z,5.08
2019-05-26T22:19:22.856Z,4.40
2019-05-26T22:21:56.988Z,5.12
2019-05-26T22:24:29.462Z,4.17
2019-05-26T22:27:13.620Z,5.30
2019-05-26T22:29:45.379Z,5.37
2019-05-26T22:32:18.129Z,5.12
2019-05-26T22:34:49.460Z,4.87
2019-05-26T22:37:20.398Z,4.72
2019-05-26T22:39:51.001Z,5.50
2019-05-26T22:42:21.495Z,5.35
2019-05-26T22:44:53.180Z,5.20
2019-05-26T22:47:26.334Z,5.50
2019-05-26T22:52:35.763Z,4.45
2019-05-26T22:55:07.736Z,6.40
2019-05-26T22:57:39.590Z,4.35
2019-05-26T23:00:12.529Z,5.37
2019-05-26T23:02:48.348Z,5.40
2019-05-26T23:05:18.513Z,6.08
2019-05-26T23:07:49.746Z,5.10
2019-05-26T23:10:24.763Z,4.65
2019-05-26T23:12:57.122Z,5.35
2019-05-26T23:15:30.129Z,5.60
2019-05-26T23:18:00.868Z,5.37
2019-05-26T23:20:34.991Z,5.75
2019-05-26T23:23:07.423Z,5.25
2019-05-26T23:25:37.560Z,5.03
2019-05-26T23:28:07.566Z,5.80
2019-05-26T23:30:38.428Z,4.83
2019-05-26T23:33:09.774Z,5.65
2019-05-26T23:35:39.928Z,5.12
2019-05-26T23:38:12.165Z,5.30
2019-05-26T23:40:42.716Z,5.35
2019-05-26T23:43:15.193Z,5.05
2019-05-26T23:45:46.593Z,5.00
2019-05-26T23:48:18.748Z,5.05
2019-05-26T23:50:48.856Z,5.10
2019-05-26T23:53:21.219Z,5.83
2019-05-26T23:55:59.851Z,5.85
2019-05-26T23:58:30.441Z,5.30
